createdAt,value
2018-09-11T00:00:47.817Z,0.00
2018-09-11T00:01:47.835Z,0.00
2018-09-11T00:02:47.808Z,0.00
2018-09-11T00:03:47.809Z,0.00
2018-09-11T00:04:47.805Z,0.00
2018-09-11T00:05:47.823Z,0.00
2018-09-11T00:06:47.796Z,0.00
2018-09-11T00:07:47.795Z,0.00
2018-09-11T00:08:47.788Z,0.00
2018-09-11T00:09:47.810Z,0.00
2018-09-11T00:10:47.782Z,0.00
2018-09-11T00:11:47.784Z,0.00
2018-09-11T00:12:47.777Z,0.00
2018-09-11T00:13:47.777Z,0.00
2018-09-11T00:14:47.775Z,0.00
2018-09-11T00:15:47.770Z,0.00
2018-09-11T00:16:47.765Z,0.00
2018-09-11T00:17:47.762Z,0.00
2018-09-11T00:18:47.758Z,0.00
2018-09-11T00:19:47.751Z,0.00
2018-09-11T00:20:47.753Z,0.00
2018-09-11T00:21:47.750Z,0.00
2018-09-11T00:22:47.745Z,0.00
2018-09-11T00:23:47.742Z,0.00
2018-09-11T00:24:47.740Z,0.00
2018-09-11T00:25:47.738Z,0.00
2018-09-11T00:26:47.731Z,0.00
2018-09-11T00:27:47.740Z,0.00
2018-09-11T00:28:47.728Z,0.00
2018-09-11T00:29:47.720Z,0.00
2018-09-11T00:30:47.727Z,0.00
2018-09-11T00:31:47.716Z,0.00
2018-09-11T00:32:47.719Z,0.00
2018-09-11T00:33:47.712Z,0.00
2018-09-11T00:34:47.708Z,0.00
2018-09-11T00:35:47.705Z,0.00
2018-09-11T00:36:47.704Z,0.00
2018-09-11T00:37:47.702Z,0.00
2018-09-11T00:38:47.692Z,0.00
2018-09-11T00:39:47.689Z,0.00
2018-09-11T00:40:47.686Z,0.00
2018-09-11T00:41:47.683Z,0.00
2018-09-11T00:42:47.679Z,0.00
2018-09-11T00:43:47.677Z,0.00
2018-09-11T00:44:47.673Z,0.00
2018-09-11T00:45:47.669Z,0.00
2018-09-11T00:46:47.665Z,0.00
2018-09-11T00:47:47.712Z,0.00
2018-09-11T00:48:47.661Z,0.00
2018-09-11T00:49:47.659Z,0.00
2018-09-11T00:50:47.714Z,0.00
2018-09-11T00:51:47.694Z,0.00
2018-09-11T00:52:47.646Z,0.00
2018-09-11T00:53:47.643Z,0.00
2018-09-11T00:54:47.639Z,0.00
2018-09-11T00:55:47.634Z,0.00
2018-09-11T00:56:47.636Z,0.00
2018-09-11T00:57:47.635Z,0.00
2018-09-11T00:58:47.624Z,0.00
2018-09-11T00:59:47.630Z,0.00
2018-09-11T01:00:47.617Z,0.00
2018-09-11T01:01:47.688Z,0.00
2018-09-11T01:02:47.639Z,0.00
2018-09-11T01:03:47.628Z,0.00
2018-09-11T01:04:47.606Z,0.00
2018-09-11T01:05:47.642Z,0.00
2018-09-11T01:06:47.604Z,0.00
2018-09-11T01:07:47.594Z,0.00
2018-09-11T01:08:47.591Z,0.00
2018-09-11T01:09:47.650Z,0.00
2018-09-11T01:10:47.586Z,0.00
2018-09-11T01:11:47.584Z,0.00
2018-09-11T01:12:47.583Z,0.00
2018-09-11T01:13:47.583Z,0.00
2018-09-11T01:14:47.574Z,0.00
2018-09-11T01:15:47.570Z,0.00
2018-09-11T01:16:47.566Z,0.00
2018-09-11T01:17:47.562Z,0.00
2018-09-11T01:18:47.556Z,0.00
2018-09-11T01:19:47.558Z,0.00
2018-09-11T01:20:47.566Z,0.00
2018-09-11T01:21:47.547Z,0.00
2018-09-11T01:22:47.546Z,0.00
2018-09-11T01:23:47.540Z,0.00
2018-09-11T01:24:47.536Z,0.00
2018-09-11T01:25:47.535Z,0.00
2018-09-11T01:26:47.535Z,0.00
2018-09-11T01:27:47.527Z,0.00
2018-09-11T01:28:47.523Z,0.00
2018-09-11T01:29:47.521Z,0.00
2018-09-11T02:06:52.100Z,0.00
2018-09-11T02:07:52.073Z,0.00
2018-09-11T02:09:44.972Z,0.00
2018-09-11T02:10:44.943Z,0.00
2018-09-11T02:12:37.890Z,0.00
2018-09-11T02:13:37.895Z,0.00
2018-09-11T02:15:30.794Z,0.00
2018-09-11T02:16:30.777Z,0.00
2018-09-11T02:18:23.674Z,0.00
2018-09-11T02:19:23.667Z,0.00
2018-09-11T02:21:16.577Z,0.00
2018-09-11T02:22:16.607Z,0.00
2018-09-11T02:24:09.514Z,0.00
2018-09-11T02:25:09.494Z,0.00
2018-09-11T02:27:02.456Z,0.00
2018-09-11T02:28:02.440Z,0.00
2018-09-11T02:29:55.418Z,0.00
2018-09-11T02:30:55.400Z,0.00
2018-09-11T02:32:48.368Z,0.00
2018-09-11T02:33:48.353Z,0.00
2018-09-11T02:35:41.352Z,0.00
2018-09-11T02:36:41.310Z,0.00
2018-09-11T02:38:34.283Z,0.00
2018-09-11T02:39:34.272Z,0.00
2018-09-11T02:41:27.696Z,0.00
2018-09-11T02:42:27.672Z,0.00
2018-09-11T02:44:20.609Z,0.00
2018-09-11T02:45:20.590Z,0.00
2018-09-11T02:47:13.489Z,0.00
2018-09-11T02:48:13.474Z,0.00
2018-09-11T02:50:06.418Z,0.00
2018-09-11T02:51:06.392Z,0.00
2018-09-11T02:52:59.352Z,0.00
2018-09-11T02:53:59.348Z,0.00
2018-09-11T02:55:52.325Z,0.00
2018-09-11T02:56:52.293Z,0.00
2018-09-11T02:58:45.266Z,0.00
2018-09-11T02:59:45.249Z,0.00
2018-09-11T03:01:38.225Z,0.00
2018-09-11T03:02:38.209Z,0.00
2018-09-11T03:04:31.188Z,0.00
2018-09-11T03:05:31.158Z,0.00
2018-09-11T03:07:24.126Z,0.00
2018-09-11T03:08:24.118Z,0.00
2018-09-11T03:10:17.097Z,0.00
2018-09-11T03:11:17.073Z,0.00
2018-09-11T03:13:10.037Z,0.00
2018-09-11T03:14:10.027Z,0.00
2018-09-11T03:16:03.000Z,0.00
2018-09-11T03:17:02.974Z,0.00
2018-09-11T03:18:55.982Z,0.00
2018-09-11T03:19:55.932Z,0.00
2018-09-11T03:21:48.906Z,0.00
2018-09-11T03:22:48.881Z,0.00
2018-09-11T03:24:41.813Z,0.00
2018-09-11T03:25:41.788Z,0.00
2018-09-11T03:27:34.704Z,0.00
2018-09-11T03:28:34.692Z,0.00
2018-09-11T03:30:27.670Z,0.00
2018-09-11T03:31:27.659Z,0.00
2018-09-11T03:33:20.611Z,0.00
2018-09-11T03:34:20.599Z,0.00
2018-09-11T03:36:13.579Z,0.00
2018-09-11T03:37:13.565Z,0.00
2018-09-11T03:39:06.527Z,0.00
2018-09-11T03:40:06.514Z,0.00
2018-09-11T03:41:59.488Z,0.00
2018-09-11T03:42:59.471Z,0.00
2018-09-11T03:44:52.397Z,0.00
2018-09-11T03:45:52.375Z,0.00
2018-09-11T03:47:46.305Z,0.00
2018-09-11T03:48:46.298Z,0.00
2018-09-11T03:50:39.270Z,0.00
2018-09-11T03:51:39.253Z,0.00
2018-09-11T03:53:33.242Z,0.00
2018-09-11T03:54:33.229Z,0.00
2018-09-11T03:56:26.205Z,0.00
2018-09-11T03:57:26.194Z,0.00
2018-09-11T03:59:19.116Z,0.00
2018-09-11T04:00:19.091Z,0.00
2018-09-11T04:02:12.017Z,0.00
2018-09-11T04:03:11.992Z,0.00
2018-09-11T04:05:04.983Z,0.00
2018-09-11T04:06:04.952Z,0.00
2018-09-11T04:07:57.913Z,0.00
2018-09-11T04:08:57.897Z,0.00
2018-09-11T04:10:50.874Z,0.00
2018-09-11T04:11:50.853Z,0.00
2018-09-11T04:13:43.819Z,0.00
2018-09-11T04:14:43.807Z,0.00
2018-09-11T04:16:36.769Z,0.00
2018-09-11T04:17:36.746Z,0.00
2018-09-11T04:19:29.732Z,0.00
2018-09-11T04:20:29.716Z,0.00
2018-09-11T04:22:22.707Z,0.00
2018-09-11T04:23:22.688Z,0.00
2018-09-11T04:25:15.661Z,0.00
2018-09-11T04:26:15.626Z,0.00
2018-09-11T04:28:08.589Z,0.00
2018-09-11T04:29:08.588Z,0.00
2018-09-11T04:31:01.564Z,0.00
2018-09-11T04:32:01.533Z,0.00
2018-09-11T04:33:54.498Z,0.00
2018-09-11T04:34:54.487Z,0.00
2018-09-11T04:36:47.408Z,0.00
2018-09-11T04:37:47.384Z,0.00
2018-09-11T04:39:40.304Z,0.00
2018-09-11T04:40:40.289Z,0.00
2018-09-11T04:42:33.251Z,0.00
2018-09-11T04:43:33.226Z,0.00
2018-09-11T04:45:26.129Z,5.63
2018-09-11T04:46:26.118Z,5.63
2018-09-11T04:48:19.077Z,5.63
2018-09-11T04:49:19.054Z,5.63
2018-09-11T04:51:12.033Z,11.25
2018-09-11T04:52:12.004Z,11.25
2018-09-11T04:54:04.973Z,11.25
2018-09-11T04:55:04.960Z,16.88
2018-09-11T04:56:57.945Z,16.88
2018-09-11T04:57:57.905Z,22.50
2018-09-11T04:59:50.885Z,22.50
2018-09-11T05:00:50.866Z,28.13
2018-09-11T05:02:43.825Z,28.13
2018-09-11T05:03:43.796Z,33.75
2018-09-11T05:04:43.804Z,33.75
2018-09-11T05:05:43.808Z,39.38
2018-09-11T05:06:43.794Z,39.38
2018-09-11T05:07:43.793Z,45.00
2018-09-11T05:08:43.783Z,50.63
2018-09-11T05:09:43.782Z,50.63
2018-09-11T05:10:43.777Z,56.25
2018-09-11T05:11:43.774Z,56.25
2018-09-11T05:12:43.766Z,61.88
2018-09-11T05:13:43.770Z,67.50
2018-09-11T05:14:43.758Z,67.50
2018-09-11T05:15:43.762Z,73.13
2018-09-11T05:16:43.758Z,73.13
2018-09-11T05:17:43.748Z,78.75
2018-09-11T05:18:43.755Z,78.75
2018-09-11T05:19:43.746Z,84.38
2018-09-11T05:20:43.744Z,90.00
2018-09-11T05:21:43.739Z,95.63
2018-09-11T05:22:43.753Z,106.88
2018-09-11T05:23:43.732Z,106.88
2018-09-11T05:24:43.731Z,112.50
2018-09-11T05:25:43.769Z,118.13
2018-09-11T05:26:43.717Z,123.75
2018-09-11T05:27:43.717Z,123.75
2018-09-11T05:28:43.715Z,123.75
2018-09-11T05:29:43.709Z,129.38
2018-09-11T05:30:43.714Z,135.00
2018-09-11T05:31:43.704Z,135.00
2018-09-11T05:32:43.701Z,140.63
2018-09-11T05:33:43.716Z,140.63
2018-09-11T05:34:43.765Z,146.25
2018-09-11T05:35:43.689Z,151.88
2018-09-11T05:36:43.697Z,163.13
2018-09-11T05:37:43.687Z,157.50
2018-09-11T05:38:43.682Z,163.13
2018-09-11T05:39:43.676Z,168.75
2018-09-11T05:40:43.676Z,174.38
2018-09-11T05:41:43.675Z,174.38
2018-09-11T05:42:43.672Z,180.00
2018-09-11T05:43:43.664Z,185.63
2018-09-11T05:44:43.667Z,185.63
2018-09-11T05:45:43.658Z,185.63
2018-09-11T05:46:43.664Z,191.25
2018-09-11T05:47:43.665Z,191.25
2018-09-11T05:48:43.652Z,202.50
2018-09-11T05:49:43.654Z,208.13
2018-09-11T05:50:43.646Z,213.75
2018-09-11T05:51:43.639Z,219.38
2018-09-11T05:52:43.640Z,219.38
2018-09-11T05:53:43.638Z,236.25
2018-09-11T05:54:43.639Z,241.88
2018-09-11T05:55:43.697Z,241.88
2018-09-11T05:56:43.622Z,247.50
2018-09-11T05:57:43.621Z,258.75
2018-09-11T05:58:43.617Z,258.75
2018-09-11T05:59:43.633Z,264.38
2018-09-11T06:00:43.673Z,264.38
2018-09-11T06:01:43.611Z,275.63
2018-09-11T06:02:43.608Z,281.25
2018-09-11T06:03:43.606Z,292.50
2018-09-11T06:04:43.604Z,298.13
2018-09-11T06:05:43.681Z,303.75
2018-09-11T06:06:43.596Z,309.38
2018-09-11T06:07:43.595Z,315.00
2018-09-11T06:08:43.596Z,320.63
2018-09-11T06:09:43.589Z,326.25
2018-09-11T06:10:43.588Z,331.88
2018-09-11T06:11:43.584Z,331.88
2018-09-11T06:12:43.584Z,343.13
2018-09-11T06:13:43.579Z,343.13
2018-09-11T06:14:43.579Z,348.75
2018-09-11T06:15:43.575Z,348.75
2018-09-11T06:16:43.576Z,354.38
2018-09-11T06:17:43.572Z,365.63
2018-09-11T06:18:43.575Z,371.25
2018-09-11T06:19:43.568Z,376.88
2018-09-11T06:20:43.563Z,376.88
2018-09-11T06:21:43.565Z,371.25
2018-09-11T06:22:43.564Z,371.25
2018-09-11T06:23:43.560Z,354.38
2018-09-11T06:24:43.556Z,348.75
2018-09-11T06:25:43.642Z,365.63
2018-09-11T06:26:43.556Z,393.75
2018-09-11T06:27:43.552Z,410.63
2018-09-11T06:28:43.552Z,416.25
2018-09-11T06:29:43.599Z,421.88
2018-09-11T06:30:43.552Z,421.88
2018-09-11T06:31:43.547Z,410.63
2018-09-11T06:32:43.542Z,416.25
2018-09-11T06:33:43.547Z,421.88
2018-09-11T06:34:43.562Z,410.63
2018-09-11T06:35:43.544Z,416.25
2018-09-11T06:36:43.552Z,410.63
2018-09-11T06:37:43.540Z,421.88
2018-09-11T06:38:43.539Z,438.75
2018-09-11T06:39:43.537Z,444.38
2018-09-11T06:40:43.538Z,444.38
2018-09-11T06:41:43.562Z,450.00
2018-09-11T06:42:43.536Z,461.25
2018-09-11T06:43:43.538Z,461.25
2018-09-11T06:44:43.599Z,466.88
2018-09-11T06:45:43.533Z,472.50
2018-09-11T06:46:43.536Z,472.50
2018-09-11T06:47:43.557Z,478.13
2018-09-11T06:48:43.534Z,483.75
2018-09-11T06:49:43.530Z,478.13
2018-09-11T06:50:43.533Z,472.50
2018-09-11T06:51:43.537Z,483.75
2018-09-11T06:52:43.535Z,500.63
2018-09-11T06:53:43.534Z,495.00
2018-09-11T06:54:43.560Z,517.50
2018-09-11T06:55:43.547Z,523.13
2018-09-11T06:56:43.529Z,596.25
2018-09-11T06:57:43.531Z,714.38
2018-09-11T06:58:43.532Z,849.38
2018-09-11T06:59:43.531Z,1040.63
2018-09-11T07:00:43.616Z,1113.75
2018-09-11T07:01:43.548Z,1158.75
2018-09-11T07:02:43.543Z,1254.38
2018-09-11T07:03:43.548Z,1316.25
2018-09-11T07:04:43.546Z,1265.63
2018-09-11T07:05:43.535Z,1282.50
2018-09-11T07:06:43.537Z,1203.75
2018-09-11T07:07:44.406Z,1231.88
2018-09-11T07:08:43.549Z,1361.25
2018-09-11T07:09:43.546Z,1321.88
2018-09-11T07:10:43.551Z,1333.13
2018-09-11T07:11:43.554Z,1389.38
2018-09-11T07:12:43.557Z,1406.25
2018-09-11T07:13:43.560Z,1406.25
2018-09-11T07:14:43.625Z,1395.00
2018-09-11T07:15:43.573Z,1428.75
2018-09-11T07:16:43.591Z,1462.50
2018-09-11T07:17:43.580Z,1473.75
2018-09-11T07:18:43.585Z,1485.00
2018-09-11T07:19:43.699Z,1490.63
2018-09-11T07:20:43.588Z,1530.00
2018-09-11T07:21:43.625Z,1558.13
2018-09-11T07:22:43.612Z,1614.38
2018-09-11T07:23:43.614Z,1648.13
2018-09-11T07:24:43.623Z,1665.00
2018-09-11T07:25:43.644Z,1687.50
2018-09-11T07:26:43.637Z,1715.63
2018-09-11T07:27:43.642Z,1710.00
2018-09-11T07:28:43.652Z,1721.25
2018-09-11T07:29:43.656Z,1738.13
2018-09-11T07:30:43.664Z,1721.25
2018-09-11T07:31:43.672Z,1710.00
2018-09-11T07:32:43.679Z,1783.13
2018-09-11T07:33:43.688Z,1811.25
2018-09-11T07:34:43.697Z,1828.13
2018-09-11T07:35:43.703Z,1850.63
2018-09-11T07:36:43.706Z,1828.13
2018-09-11T07:37:43.748Z,1856.25
2018-09-11T07:38:43.730Z,1963.13
2018-09-11T07:39:43.747Z,1912.50
2018-09-11T07:40:43.747Z,1906.88
2018-09-11T07:41:43.759Z,1963.13
2018-09-11T07:42:43.764Z,2036.25
2018-09-11T07:43:43.771Z,2070.00
2018-09-11T07:44:43.781Z,2041.88
2018-09-11T07:45:43.790Z,2081.25
2018-09-11T07:46:43.803Z,2053.13
2018-09-11T07:47:43.807Z,2070.00
2018-09-11T07:48:43.817Z,2115.00
2018-09-11T07:49:43.827Z,2171.25
2018-09-11T07:50:43.838Z,2176.88
2018-09-11T07:51:43.843Z,2205.00
2018-09-11T07:52:44.002Z,2255.63
2018-09-11T07:53:43.863Z,2193.75
2018-09-11T07:54:43.884Z,2385.00
2018-09-11T07:55:43.895Z,2311.88
2018-09-11T07:56:43.894Z,2261.25
2018-09-11T07:57:44.003Z,2306.25
2018-09-11T07:58:43.921Z,2362.50
2018-09-11T07:59:43.925Z,2469.38
2018-09-11T08:00:43.940Z,2542.50
2018-09-11T08:01:43.950Z,2480.63
2018-09-11T08:02:43.963Z,2396.25
2018-09-11T08:03:43.967Z,2345.63
2018-09-11T08:04:43.978Z,2401.88
2018-09-11T08:05:44.040Z,2542.50
2018-09-11T08:06:44.004Z,2649.38
2018-09-11T08:07:44.016Z,2610.00
2018-09-11T08:08:44.023Z,2565.00
2018-09-11T08:09:44.033Z,2542.50
2018-09-11T08:10:44.043Z,2632.50
2018-09-11T08:11:44.058Z,2761.88
2018-09-11T08:12:44.069Z,2745.00
2018-09-11T08:13:44.086Z,2576.25
2018-09-11T08:14:44.091Z,2643.75
2018-09-11T08:15:44.107Z,2700.00
2018-09-11T08:16:44.115Z,2700.00
2018-09-11T08:17:44.125Z,2660.63
2018-09-11T08:18:44.133Z,2626.88
2018-09-11T08:19:44.184Z,2700.00
2018-09-11T08:20:44.161Z,2660.63
2018-09-11T08:21:44.170Z,2846.25
2018-09-11T08:22:44.194Z,2975.63
2018-09-11T08:23:44.279Z,2778.75
2018-09-11T08:24:44.215Z,2756.25
2018-09-11T08:25:44.327Z,2773.13
2018-09-11T08:26:44.232Z,2812.50
2018-09-11T08:27:44.242Z,2891.25
2018-09-11T08:28:44.258Z,2728.13
2018-09-11T08:29:44.267Z,2761.88
2018-09-11T08:30:44.283Z,2896.88
2018-09-11T08:31:44.294Z,2885.63
2018-09-11T08:32:44.309Z,2925.00
2018-09-11T08:33:44.317Z,2953.13
2018-09-11T08:34:44.331Z,3037.50
2018-09-11T08:35:44.341Z,2992.50
2018-09-11T08:36:44.367Z,3082.50
2018-09-11T08:37:44.367Z,3256.88
2018-09-11T08:38:44.387Z,3307.50
2018-09-11T08:39:44.400Z,3206.25
2018-09-11T08:40:44.451Z,3076.88
2018-09-11T08:41:44.448Z,3183.75
2018-09-11T08:42:44.433Z,3211.88
2018-09-11T08:43:44.468Z,3003.75
2018-09-11T08:44:44.523Z,3380.63
2018-09-11T08:45:44.508Z,3476.25
2018-09-11T08:46:44.567Z,3358.13
2018-09-11T08:47:44.497Z,3330.00
2018-09-11T08:48:44.505Z,3234.38
2018-09-11T08:49:44.523Z,3150.00
2018-09-11T08:50:44.546Z,3172.50
2018-09-11T08:51:44.545Z,2958.75
2018-09-11T08:52:44.569Z,2818.13
2018-09-11T08:53:44.574Z,3211.88
2018-09-11T08:54:44.588Z,3200.63
2018-09-11T08:55:45.389Z,3341.25
2018-09-11T08:56:44.640Z,3594.38
2018-09-11T08:57:44.625Z,3571.88
2018-09-11T08:58:44.650Z,3633.75
2018-09-11T08:59:44.689Z,3481.88
2018-09-11T09:00:44.717Z,3538.13
2018-09-11T09:01:44.696Z,3661.88
2018-09-11T09:02:44.732Z,3723.75
2018-09-11T09:03:44.711Z,3813.75
2018-09-11T09:04:44.725Z,3757.50
2018-09-11T09:05:44.738Z,3751.88
2018-09-11T09:06:44.760Z,3858.75
2018-09-11T09:07:44.774Z,3701.25
2018-09-11T09:08:44.778Z,3645.00
2018-09-11T09:09:44.795Z,3600.00
2018-09-11T09:10:44.811Z,3791.25
2018-09-11T09:11:44.827Z,3712.50
2018-09-11T09:12:44.840Z,3841.88
2018-09-11T09:13:44.867Z,3864.38
2018-09-11T09:14:44.873Z,3976.88
2018-09-11T09:15:44.931Z,3960.00
2018-09-11T09:16:44.901Z,3965.63
2018-09-11T09:17:44.916Z,3853.13
2018-09-11T09:18:44.930Z,3729.38
2018-09-11T09:19:44.941Z,3431.25
2018-09-11T09:20:45.002Z,3920.63
2018-09-11T09:21:44.973Z,3712.50
2018-09-11T09:22:44.987Z,3510.00
2018-09-11T09:23:45.004Z,3954.38
2018-09-11T09:24:45.030Z,3971.25
2018-09-11T09:25:45.067Z,4038.75
2018-09-11T09:26:45.049Z,3926.25
2018-09-11T09:27:45.062Z,3875.63
2018-09-11T09:28:45.112Z,3976.88
2018-09-11T09:29:45.090Z,3757.50
2018-09-11T09:30:45.107Z,3847.50
2018-09-11T09:31:45.122Z,4050.00
2018-09-11T09:32:45.139Z,3808.13
2018-09-11T09:33:45.157Z,3600.00
2018-09-11T09:34:45.167Z,3712.50
2018-09-11T09:35:45.182Z,3611.25
2018-09-11T09:36:45.233Z,3391.88
2018-09-11T09:37:45.214Z,3588.75
2018-09-11T09:38:45.234Z,3493.13
2018-09-11T09:39:45.246Z,3386.25
2018-09-11T09:40:45.281Z,3476.25
2018-09-11T09:41:45.274Z,3099.38
2018-09-11T09:42:45.292Z,3251.25
2018-09-11T09:43:45.311Z,3594.38
2018-09-11T09:44:45.320Z,3301.88
2018-09-11T09:45:45.333Z,3493.13
2018-09-11T09:46:45.344Z,3594.38
2018-09-11T09:47:45.363Z,3515.63
2018-09-11T09:48:45.375Z,3538.13
2018-09-11T09:49:45.389Z,3515.63
2018-09-11T09:50:45.450Z,3639.38
2018-09-11T09:51:45.409Z,3735.00
2018-09-11T09:52:45.435Z,3442.50
2018-09-11T09:53:45.456Z,3718.13
2018-09-11T09:54:45.461Z,3903.75
2018-09-11T09:55:45.507Z,4038.75
2018-09-11T09:56:45.501Z,4162.50
2018-09-11T09:57:45.507Z,4111.88
2018-09-11T09:58:45.521Z,4196.25
2018-09-11T09:59:45.534Z,4207.50
2018-09-11T10:00:45.551Z,4213.13
2018-09-11T10:01:45.555Z,4263.75
2018-09-11T10:02:45.581Z,4269.38
2018-09-11T10:03:45.598Z,4201.88
2018-09-11T10:04:45.621Z,4432.50
2018-09-11T10:05:45.626Z,4398.75
2018-09-11T10:06:45.643Z,4297.50
2018-09-11T10:07:45.655Z,4123.13
2018-09-11T10:08:45.668Z,4246.88
2018-09-11T10:09:45.687Z,4179.38
2018-09-11T10:10:45.694Z,4258.13
2018-09-11T10:11:45.766Z,4365.00
2018-09-11T10:12:45.747Z,4117.50
2018-09-11T10:13:45.766Z,4134.38
2018-09-11T10:14:45.764Z,4291.88
2018-09-11T10:15:45.777Z,4438.13
2018-09-11T10:16:45.794Z,4308.75
2018-09-11T10:17:45.862Z,4145.63
2018-09-11T10:18:45.826Z,4488.75
2018-09-11T10:19:45.839Z,4342.50
2018-09-11T10:20:45.856Z,4308.75
2018-09-11T10:21:45.871Z,4348.13
2018-09-11T10:22:45.890Z,3853.13
2018-09-11T10:23:45.902Z,3791.25
2018-09-11T10:24:45.913Z,3386.25
2018-09-11T10:25:45.977Z,3510.00
2018-09-11T10:26:45.949Z,2981.25
2018-09-11T10:27:45.964Z,2930.63
2018-09-11T10:28:45.989Z,2846.25
2018-09-11T10:29:46.010Z,2998.13
2018-09-11T10:30:46.005Z,2857.50
2018-09-11T10:31:46.020Z,3031.88
2018-09-11T10:32:46.034Z,3240.00
2018-09-11T10:33:46.065Z,3273.75
2018-09-11T10:34:46.063Z,3240.00
2018-09-11T10:35:46.075Z,3341.25
2018-09-11T10:36:46.088Z,3780.00
2018-09-11T10:37:46.152Z,3510.00
2018-09-11T10:38:46.116Z,3622.50
2018-09-11T10:39:46.131Z,3813.75
2018-09-11T10:40:46.144Z,3864.38
2018-09-11T10:41:46.158Z,3920.63
2018-09-11T10:42:46.173Z,4078.13
2018-09-11T10:43:46.183Z,4100.63
2018-09-11T10:44:46.205Z,4213.13
2018-09-11T10:45:46.213Z,4308.75
2018-09-11T10:46:46.231Z,4230.00
2018-09-11T10:47:46.253Z,4353.75
2018-09-11T10:48:46.347Z,4421.25
2018-09-11T10:49:46.265Z,4483.13
2018-09-11T10:50:46.290Z,4522.50
2018-09-11T10:51:46.339Z,4190.63
2018-09-11T10:52:46.335Z,4078.13
2018-09-11T10:53:46.337Z,4134.38
2018-09-11T10:54:46.351Z,4376.25
2018-09-11T10:55:46.375Z,4246.88
2018-09-11T10:56:46.380Z,3757.50
2018-09-11T10:57:46.398Z,3521.25
2018-09-11T10:58:46.417Z,3875.63
2018-09-11T10:59:46.427Z,3729.38
2018-09-11T11:00:46.441Z,3622.50
2018-09-11T11:01:46.462Z,3459.38
2018-09-11T11:02:46.478Z,3611.25
2018-09-11T11:03:46.491Z,3335.63
2018-09-11T11:04:46.508Z,3099.38
2018-09-11T11:05:46.531Z,3121.88
2018-09-11T11:06:46.534Z,3358.13
2018-09-11T11:07:46.548Z,3166.88
2018-09-11T11:08:46.562Z,3228.75
2018-09-11T11:09:46.581Z,3110.63
2018-09-11T11:10:46.596Z,2919.38
2018-09-11T11:11:46.609Z,2874.38
2018-09-11T11:12:46.624Z,2778.75
2018-09-11T11:13:46.638Z,3178.13
2018-09-11T11:14:46.654Z,3031.88
2018-09-11T11:15:46.667Z,3121.88
2018-09-11T11:16:46.683Z,3549.38
2018-09-11T11:17:46.693Z,3223.13
2018-09-11T11:18:46.706Z,3223.13
2018-09-11T11:19:46.731Z,3133.13
2018-09-11T11:20:46.740Z,3296.25
2018-09-11T11:21:46.750Z,3211.88
2018-09-11T11:22:46.763Z,3335.63
2018-09-11T11:23:46.777Z,3363.75
2018-09-11T11:24:46.792Z,3538.13
2018-09-11T11:25:46.838Z,3442.50
2018-09-11T11:26:46.819Z,3341.25
2018-09-11T11:27:46.833Z,3172.50
2018-09-11T11:28:46.849Z,3054.38
2018-09-11T11:29:46.859Z,2868.75
2018-09-11T11:30:46.882Z,2649.38
2018-09-11T11:31:46.896Z,2576.25
2018-09-11T11:32:46.905Z,2587.50
2018-09-11T11:33:46.919Z,2480.63
2018-09-11T11:34:46.933Z,2418.75
2018-09-11T11:35:46.947Z,2536.88
2018-09-11T11:36:47.165Z,2407.50
2018-09-11T11:37:46.971Z,2356.88
2018-09-11T11:38:46.989Z,2413.13
2018-09-11T11:39:46.998Z,2514.38
2018-09-11T11:40:47.027Z,2491.88
2018-09-11T11:41:47.135Z,2424.38
2018-09-11T11:42:47.050Z,2424.38
2018-09-11T11:43:47.052Z,2435.63
2018-09-11T11:46:12.407Z,2086.88
2018-09-11T13:20:51.919Z,331.88
2018-09-11T13:22:16.012Z,337.50
2018-09-11T13:46:41.869Z,331.88
2018-09-11T13:47:57.257Z,331.88
2018-09-11T14:35:18.234Z,253.13
2018-09-11T22:30:04.074Z,0.00
2018-09-11T23:18:40.615Z,0.00
2018-09-11T23:21:03.288Z,0.00
